Time;durP1;ratioP1;P1;durP2;ratioP2;P2;SDS_P1;SDS_P2;PMS_P1;PMS_P2;Temp;Humidity;BMP_temperature;BMP_pressure;BME280_temperature;BME280_humidity;BME280_pressure;Samples;Min_cycle;Max_cycle;Signal;HPM_P1;HPM_P2
2022/07/12 00:02:03;33355.00;0.11;58.39;0.00;0.00;0.62;;;;;20.10;1.00;;;;;;2276592;60;1341;-84
2022/07/12 00:04:30;0.00;0.00;0.62;0.00;0.00;0.62;;;;;19.90;1.00;;;;;;2276622;60;1024;-85
2022/07/12 00:06:57;0.00;0.00;0.62;0.00;0.00;0.62;;;;;20.00;1.00;;;;;;2276639;60;1915;-84
2022/07/12 00:09:24;21404.00;0.07;37.70;0.00;0.00;0.62;;;;;20.30;1.00;;;;;;2276285;60;1139;-84
2022/07/12 00:11:51;94231.00;0.31;163.61;10474.00;0.03;18.77;;;;;20.20;1.00;;;;;;2276368;60;1902;-85
2022/07/12 00:14:18;40524.00;0.14;70.79;0.00;0.00;0.62;;;;;20.30;1.00;;;;;;2276222;60;1128;-84
2022/07/12 00:16:46;0.00;0.00;0.62;0.00;0.00;0.62;;;;;20.70;1.00;;;;;;2276520;61;1459;-85
2022/07/12 00:19:13;0.00;0.00;0.62;0.00;0.00;0.62;;;;;21.00;1.00;;;;;;2276423;60;1134;-86
2022/07/12 00:21:40;0.00;0.00;0.62;0.00;0.00;0.62;;;;;21.10;1.00;;;;;;2276448;60;1353;-85
2022/07/12 00:24:06;0.00;0.00;0.62;0.00;0.00;0.62;;;;;21.40;1.00;;;;;;2276276;60;1068;-86
2022/07/12 00:26:33;85756.00;0.29;148.98;10927.00;0.04;19.56;;;;;21.40;1.00;;;;;;2276492;60;1918;-85
2022/07/12 00:29:00;0.00;0.00;0.62;0.00;0.00;0.62;;;;;21.50;1.00;;;;;;2276376;61;1156;-85
2022/07/12 00:31:27;0.00;0.00;0.62;0.00;0.00;0.62;;;;;21.60;1.00;;;;;;2276115;60;1405;-88
2022/07/12 00:33:55;0.00;0.00;0.62;0.00;0.00;0.62;;;;;21.80;1.00;;;;;;2276430;60;1148;-86
2022/07/12 00:36:22;291055.00;0.97;502.54;82071.00;0.27;142.61;;;;;21.90;1.00;;;;;;2276191;61;1128;-85
2022/07/12 00:38:49;0.00;0.00;0.62;0.00;0.00;0.62;;;;;22.00;1.00;;;;;;2276043;60;1136;-86
2022/07/12 00:41:16;0.00;0.00;0.62;0.00;0.00;0.62;;;;;21.90;1.00;;;;;;2275831;61;1270;-85
2022/07/12 00:43:43;781720.00;2.61;1349.26;18387.00;0.06;32.48;;;;;21.70;1.00;;;;;;2276139;61;1117;-84
2022/07/12 00:46:10;1224831.00;4.08;2135.18;209687.00;0.70;362.60;;;;;21.80;1.00;;;;;;2276150;60;1187;-84
2022/07/12 00:48:38;212026.00;0.71;366.62;72294.00;0.24;125.72;;;;;21.70;1.00;;;;;;2276310;60;1948;-84
2022/07/12 00:51:07;268892.00;0.90;464.44;68621.00;0.23;119.38;;;;;21.70;1.00;;;;;;2276344;60;1311;-84
2022/07/12 00:53:34;0.00;0.00;0.62;0.00;0.00;0.62;;;;;21.80;1.00;;;;;;2276448;60;915;-85
2022/07/12 00:56:01;0.00;0.00;0.62;0.00;0.00;0.62;;;;;21.70;1.00;;;;;;2275849;61;2146;-84
2022/07/12 00:58:29;191381.00;0.64;331.09;62847.00;0.21;109.40;;;;;21.60;1.00;;;;;;2276329;61;1107;-84
2022/07/12 01:00:57;0.00;0.00;0.62;0.00;0.00;0.62;;;;;21.30;1.00;;;;;;2276247;60;1376;-84
2022/07/12 01:03:24;87946.00;0.29;152.76;0.00;0.00;0.62;;;;;21.30;1.00;;;;;;2276559;60;1074;-85
2022/07/12 01:05:51;44045.00;0.15;76.89;0.00;0.00;0.62;;;;;21.50;1.00;;;;;;2276486;60;1097;-84
2022/07/12 01:08:21;15818.00;0.05;28.03;0.00;0.00;0.62;;;;;21.40;1.00;;;;;;2276271;61;1992;-85
2022/07/12 01:10:49;85845.00;0.29;149.13;0.00;0.00;0.62;;;;;21.60;1.00;;;;;;2275965;61;1289;-84
2022/07/12 01:13:17;289439.00;0.96;499.76;116809.00;0.39;202.58;;;;;21.50;1.00;;;;;;2276055;60;1075;-86
2022/07/12 01:15:45;186412.00;0.62;322.53;70845.00;0.24;123.22;;;;;21.40;1.00;;;;;;2276230;60;1091;-85
2022/07/12 01:18:13;190534.00;0.64;329.63;71824.00;0.24;124.91;;;;;21.30;1.00;;;;;;2276343;61;1615;-85
2022/07/12 01:20:40;172743.00;0.58;298.99;79659.00;0.27;138.45;;;;;21.10;1.00;;;;;;2276184;60;1369;-84
2022/07/12 01:23:10;188402.00;0.63;325.96;71974.00;0.24;125.17;;;;;21.10;1.00;;;;;;2276135;61;1148;-85
2022/07/12 01:25:37;165725.00;0.55;286.90;70900.00;0.24;123.32;;;;;20.80;1.00;;;;;;2275727;61;1156;-85
2022/07/12 01:28:05;0.00;0.00;0.62;0.00;0.00;0.62;;;;;20.70;1.00;;;;;;2275796;61;2002;-85
2022/07/12 01:30:32;0.00;0.00;0.62;0.00;0.00;0.62;;;;;20.70;1.00;;;;;;2276100;61;1322;-85
2022/07/12 01:33:01;36195.00;0.12;63.30;0.00;0.00;0.62;;;;;20.60;1.00;;;;;;2276000;61;1162;-86
2022/07/12 01:35:28;0.00;0.00;0.62;0.00;0.00;0.62;;;;;20.80;1.00;;;;;;2276267;60;1142;-86
2022/07/12 01:37:56;0.00;0.00;0.62;0.00;0.00;0.62;;;;;21.00;1.00;;;;;;2276461;60;1094;-85
2022/07/12 01:40:24;169788.00;0.57;293.90;68226.00;0.23;118.69;;;;;20.90;1.00;;;;;;2275873;60;1535;-84
2022/07/12 01:42:52;197707.00;0.66;341.98;70220.00;0.23;122.14;;;;;21.00;1.00;;;;;;2275713;60;1585;-84
2022/07/12 01:45:19;6421.00;0.02;11.75;0.00;0.00;0.62;;;;;21.10;1.00;;;;;;2276031;61;1131;-84
2022/07/12 01:47:46;0.00;0.00;0.62;0.00;0.00;0.62;;;;;20.90;1.00;;;;;;2276084;61;1919;-85
2022/07/12 01:50:12;0.00;0.00;0.62;0.00;0.00;0.62;;;;;20.80;1.00;;;;;;2276202;60;1414;-85
2022/07/12 01:52:40;39573.00;0.13;69.15;0.00;0.00;0.62;;;;;20.70;1.00;;;;;;2276128;60;1094;-84
2022/07/12 01:55:09;0.00;0.00;0.62;0.00;0.00;0.62;;;;;20.80;1.00;;;;;;2275683;61;1149;-83
2022/07/12 01:57:38;118558624.00;395.20;67505552.00;118363064.00;394.54;67171760.00;;;;;20.60;1.00;;;;;;2275909;61;1164;-85
2022/07/12 02:00:07;171724.00;0.57;297.24;71638.00;0.24;124.59;;;;;20.60;1.00;;;;;;2276082;60;1292;-86
2022/07/12 02:02:34;235775.00;0.79;407.48;76931.00;0.26;133.74;;;;;21.00;1.00;;;;;;2276213;61;1509;-84
2022/07/12 02:05:02;189244.00;0.63;327.41;77550.00;0.26;134.81;;;;;20.70;1.00;;;;;;2276005;61;1155;-85
2022/07/12 02:07:29;169711.00;0.57;293.77;75549.00;0.25;131.35;;;;;20.50;1.00;;;;;;2276117;61;1923;-85
2022/07/12 02:09:57;195730.00;0.65;338.57;74811.00;0.25;130.07;;;;;20.80;1.00;;;;;;2276117;60;1293;-84
2022/07/12 02:12:24;162494.00;0.54;281.34;68386.00;0.23;118.97;;;;;21.00;1.00;;;;;;2276235;60;2059;-84
2022/07/12 02:14:53;163450.00;0.54;282.98;67793.00;0.23;117.95;;;;;21.10;1.00;;;;;;2276240;60;1178;-85
2022/07/12 02:17:20;210037.00;0.70;363.20;68613.00;0.23;119.36;;;;;21.20;1.00;;;;;;2276190;61;1097;-84
2022/07/12 02:19:46;211231.00;0.70;365.25;71566.00;0.24;124.47;;;;;20.90;1.00;;;;;;2276025;61;1558;-85
2022/07/12 02:22:13;181764.00;0.61;314.53;77763.00;0.26;135.17;;;;;20.80;1.00;;;;;;2276019;61;1020;-84
2022/07/12 02:24:40;166108.00;0.55;287.56;68398.00;0.23;118.99;;;;;21.00;1.00;;;;;;2275949;61;1067;-84
2022/07/12 02:27:07;173920.00;0.58;301.02;72190.00;0.24;125.54;;;;;21.10;1.00;;;;;;2275595;61;1927;-84
2022/07/12 02:29:35;166207.00;0.55;287.73;73926.00;0.25;128.54;;;;;20.90;1.00;;;;;;2275958;61;1042;-85
2022/07/12 02:32:04;231488.00;0.77;400.11;69573.00;0.23;121.02;;;;;20.80;1.00;;;;;;2275840;61;1364;-85
2022/07/12 02:34:31;238988.00;0.80;413.01;76417.00;0.25;132.85;;;;;21.00;1.00;;;;;;2275944;60;1618;-84
2022/07/12 02:36:58;168919.00;0.56;292.40;78119.00;0.26;135.79;;;;;21.10;1.00;;;;;;2276200;60;1096;-84
2022/07/12 02:39:25;210938.00;0.70;364.75;71221.00;0.24;123.87;;;;;21.10;1.00;;;;;;2276256;60;1089;-85
2022/07/12 02:41:51;193273.00;0.64;334.34;76212.00;0.25;132.49;;;;;20.80;1.00;;;;;;2276185;60;1350;-86
2022/07/12 02:44:19;45984.00;0.15;80.24;0.00;0.00;0.62;;;;;20.50;1.00;;;;;;2276922;60;1084;-86
2022/07/12 02:46:46;34021.00;0.11;59.54;0.00;0.00;0.62;;;;;20.80;1.00;;;;;;2276942;60;1057;-84
2022/07/12 02:49:15;0.00;0.00;0.62;0.00;0.00;0.62;;;;;20.70;1.00;;;;;;2276870;60;2024;-85
2022/07/12 02:51:41;53659.00;0.18;93.51;0.00;0.00;0.62;;;;;20.30;1.00;;;;;;2276896;60;1292;-85
2022/07/12 02:54:08;195914.00;0.65;338.89;27875.00;0.09;48.90;;;;;20.50;1.00;;;;;;2276928;60;1152;-85
2022/07/12 02:56:35;36680.00;0.12;64.14;0.00;0.00;0.62;;;;;20.50;1.00;;;;;;2276195;61;1144;-85
2022/07/12 02:59:02;0.00;0.00;0.62;0.00;0.00;0.62;;;;;20.40;1.00;;;;;;2276325;61;1068;-84
2022/07/12 03:01:29;52426.00;0.17;91.38;0.00;0.00;0.62;;;;;20.40;1.00;;;;;;2276689;60;1297;-85
2022/07/12 03:03:56;182446.00;0.61;315.70;0.00;0.00;0.62;;;;;20.50;1.00;;;;;;2276578;61;1236;-85
2022/07/12 03:06:24;11561.00;0.04;20.65;0.00;0.00;0.62;;;;;20.50;1.00;;;;;;2276469;61;2182;-84
2022/07/12 03:08:51;0.00;0.00;0.62;0.00;0.00;0.62;;;;;20.30;1.00;;;;;;2276580;60;1923;-84
2022/07/12 03:11:18;114454.00;0.38;198.51;0.00;0.00;0.62;;;;;20.00;1.00;;;;;;2276498;61;1365;-84
2022/07/12 03:13:45;146476.00;0.49;253.73;0.00;0.00;0.62;;;;;20.10;1.00;;;;;;2276475;60;1096;-84
2022/07/12 03:16:12;67858.00;0.23;118.06;0.00;0.00;0.62;;;;;20.10;1.00;;;;;;2276768;60;1049;-83
2022/07/12 03:18:40;0.00;0.00;0.62;0.00;0.00;0.62;;;;;20.20;1.00;;;;;;2276853;60;1017;-85
2022/07/12 03:21:07;0.00;0.00;0.62;0.00;0.00;0.62;;;;;19.90;1.00;;;;;;2276835;60;1314;-85
2022/07/12 03:23:35;0.00;0.00;0.62;0.00;0.00;0.62;;;;;19.70;1.00;;;;;;2276769;60;1021;-85
2022/07/12 03:26:03;0.00;0.00;0.62;0.00;0.00;0.62;;;;;19.70;1.00;;;;;;2276689;60;1096;-86
2022/07/12 03:28:29;122225.00;0.41;211.92;0.00;0.00;0.62;;;;;20.00;1.00;;;;;;2276793;60;2002;-86
2022/07/12 03:30:56;0.00;0.00;0.62;0.00;0.00;0.62;;;;;20.30;1.00;;;;;;2276418;60;1388;-85
2022/07/12 03:33:23;0.00;0.00;0.62;0.00;0.00;0.62;;;;;20.50;1.00;;;;;;2276777;60;1040;-85
2022/07/12 03:35:50;37207.00;0.12;65.06;0.00;0.00;0.62;;;;;20.60;1.00;;;;;;2276669;60;1085;-86
2022/07/12 03:38:17;127440.00;0.42;220.91;36300.00;0.12;63.49;;;;;20.50;1.00;;;;;;2276593;60;1163;-85
2022/07/12 03:40:46;1624.00;0.01;3.43;0.00;0.00;0.62;;;;;20.40;1.00;;;;;;2276261;61;1278;-84
2022/07/12 03:43:12;74108.00;0.25;128.86;0.00;0.00;0.62;;;;;20.30;1.00;;;;;;2276273;61;1129;-84
2022/07/12 03:45:42;473094.00;1.58;815.51;81059.00;0.27;140.87;;;;;20.40;1.00;;;;;;2276549;60;1794;-84
2022/07/12 03:48:08;209750.00;0.70;362.71;56618.00;0.19;98.63;;;;;20.50;1.00;;;;;;2276546;60;1994;-85
2022/07/12 03:50:35;0.00;0.00;0.62;0.00;0.00;0.62;;;;;20.80;1.00;;;;;;2276070;61;1273;-84
2022/07/12 03:53:02;100389.00;0.33;174.24;0.00;0.00;0.62;;;;;20.90;1.00;;;;;;2275935;61;1074;-84
2022/07/12 03:55:29;10850.00;0.04;19.42;0.00;0.00;0.62;;;;;20.90;1.00;;;;;;2275743;61;1070;-85
2022/07/12 03:57:57;0.00;0.00;0.62;0.00;0.00;0.62;;;;;21.20;1.00;;;;;;2275704;61;1111;-85
2022/07/12 04:00:24;0.00;0.00;0.62;0.00;0.00;0.62;;;;;21.20;1.00;;;;;;2275504;61;1312;-84
2022/07/12 04:02:53;0.00;0.00;0.62;0.00;0.00;0.62;;;;;20.60;1.00;;;;;;2275983;61;1132;-84
2022/07/12 04:05:25;68639.00;0.23;119.41;0.00;0.00;0.62;;;;;20.60;1.00;;;;;;2275897;61;1274;-85
2022/07/12 04:07:53;0.00;0.00;0.62;0.00;0.00;0.62;;;;;20.70;1.00;;;;;;2275936;61;1924;-84
2022/07/12 04:10:20;0.00;0.00;0.62;0.00;0.00;0.62;;;;;20.80;1.00;;;;;;2275303;61;1369;-85
2022/07/12 04:12:47;0.00;0.00;0.62;0.00;0.00;0.62;;;;;20.90;1.00;;;;;;2274533;61;1101;-83
2022/07/12 04:15:15;0.00;0.00;0.62;0.00;0.00;0.62;;;;;21.10;1.00;;;;;;2275286;61;1124;-85
2022/07/12 04:17:42;0.00;0.00;0.62;0.00;0.00;0.62;;;;;21.40;1.00;;;;;;2275570;61;1139;-85
2022/07/12 04:20:11;0.00;0.00;0.62;0.00;0.00;0.62;;;;;21.60;1.00;;;;;;2275800;61;1401;-86
2022/07/12 04:22:37;0.00;0.00;0.62;0.00;0.00;0.62;;;;;21.60;1.00;;;;;;2275773;61;1090;-84
2022/07/12 04:25:05;0.00;0.00;0.62;0.00;0.00;0.62;;;;;21.80;1.00;;;;;;2275887;61;1087;-84
2022/07/12 04:27:32;36094.00;0.12;63.13;0.00;0.00;0.62;;;;;21.70;1.00;;;;;;2275318;61;1148;-84
2022/07/12 04:29:59;24523.00;0.08;43.10;0.00;0.00;0.62;;;;;21.80;1.00;;;;;;2275497;61;2013;-85
2022/07/12 04:32:27;0.00;0.00;0.62;0.00;0.00;0.62;;;;;21.90;1.00;;;;;;2275777;61;1162;-85
2022/07/12 04:34:55;129868.00;0.43;225.10;29736.00;0.10;52.13;;;;;21.80;1.00;;;;;;2275607;61;1708;-84
2022/07/12 04:37:21;0.00;0.00;0.62;0.00;0.00;0.62;;;;;21.80;1.00;;;;;;2275637;61;1072;-84
2022/07/12 04:39:48;0.00;0.00;0.62;0.00;0.00;0.62;;;;;21.60;1.00;;;;;;2274462;61;1321;-84
2022/07/12 04:42:15;85265.00;0.28;148.13;0.00;0.00;0.62;;;;;21.40;1.00;;;;;;2274586;60;1191;-85
2022/07/12 04:44:42;116676.00;0.39;202.35;50315.00;0.17;87.73;;;;;21.20;1.00;;;;;;2275664;60;1160;-84
2022/07/12 04:47:10;31058.00;0.10;54.41;0.00;0.00;0.62;;;;;21.30;1.00;;;;;;2274966;61;1159;-84
2022/07/12 04:49:38;152837.00;0.51;264.70;69410.00;0.23;120.74;;;;;21.60;1.00;;;;;;2274766;61;1914;-83
2022/07/12 04:52:06;32463.00;0.11;56.85;0.00;0.00;0.62;;;;;21.40;1.00;;;;;;2274754;61;1340;-83
2022/07/12 04:54:32;0.00;0.00;0.62;0.00;0.00;0.62;;;;;21.50;1.00;;;;;;2274844;61;1100;-83
2022/07/12 04:56:59;98061.00;0.33;170.22;0.00;0.00;0.62;;;;;22.00;1.00;;;;;;2274404;61;1140;-83
2022/07/12 04:59:26;21708.00;0.07;38.23;0.00;0.00;0.62;;;;;22.00;1.00;;;;;;2273948;61;1097;-83
2022/07/12 05:01:53;19420.00;0.06;34.27;0.00;0.00;0.62;;;;;21.80;1.00;;;;;;2274513;61;1243;-84
2022/07/12 05:04:20;121275.00;0.40;210.28;25473.00;0.08;44.75;;;;;21.70;1.00;;;;;;2274726;61;1031;-84
2022/07/12 05:06:48;50716.00;0.17;88.42;0.00;0.00;0.62;;;;;21.70;1.00;;;;;;2274860;61;1130;-84
2022/07/12 05:09:18;38361.00;0.13;67.05;0.00;0.00;0.62;;;;;21.90;1.00;;;;;;2276236;61;1997;-84
2022/07/12 05:11:45;51586.00;0.17;89.93;0.00;0.00;0.62;;;;;21.80;1.00;;;;;;2276181;61;1406;-83
2022/07/12 05:14:12;42598.00;0.14;74.38;0.00;0.00;0.62;;;;;21.50;1.00;;;;;;2276143;60;1146;-85
2022/07/12 05:16:39;0.00;0.00;0.62;0.00;0.00;0.62;;;;;21.60;1.00;;;;;;2276272;61;965;-84
2022/07/12 05:19:05;0.00;0.00;0.62;0.00;0.00;0.62;;;;;21.80;1.00;;;;;;2275555;61;1129;-83
2022/07/12 05:21:34;0.00;0.00;0.62;0.00;0.00;0.62;;;;;21.70;1.00;;;;;;2275626;61;1274;-83
2022/07/12 05:24:03;121303.00;0.40;210.33;0.00;0.00;0.62;;;;;21.90;1.00;;;;;;2275605;61;1105;-84
2022/07/12 05:26:30;0.00;0.00;0.62;0.00;0.00;0.62;;;;;22.30;1.00;;;;;;2275562;61;1179;-84
2022/07/12 05:28:57;139435.00;0.46;241.60;0.00;0.00;0.62;;;;;22.40;1.00;;;;;;2275738;61;1935;-84
2022/07/12 05:31:24;94374.00;0.31;163.86;0.00;0.00;0.62;;;;;22.30;1.00;;;;;;2275403;61;1418;-84
2022/07/12 05:33:51;0.00;0.00;0.62;0.00;0.00;0.62;;;;;21.90;1.00;;;;;;2275574;61;1113;-84
2022/07/12 05:36:18;0.00;0.00;0.62;0.00;0.00;0.62;;;;;21.90;1.00;;;;;;2275727;60;1140;-85
2022/07/12 05:38:45;0.00;0.00;0.62;0.00;0.00;0.62;;;;;21.90;1.00;;;;;;2275798;61;1119;-84
2022/07/12 05:41:13;0.00;0.00;0.62;0.00;0.00;0.62;;;;;22.00;1.00;;;;;;2275685;61;1301;-85
2022/07/12 05:43:40;0.00;0.00;0.62;0.00;0.00;0.62;;;;;22.10;1.00;;;;;;2275598;61;1143;-83
2022/07/12 05:46:08;85549.00;0.29;148.62;0.00;0.00;0.62;;;;;22.50;1.00;;;;;;2275768;61;1072;-83
2022/07/12 05:48:35;0.00;0.00;0.62;0.00;0.00;0.62;;;;;23.30;1.00;;;;;;2275880;60;2000;-85
2022/07/12 05:53:42;44090.00;0.15;76.96;0.00;0.00;0.62;;;;;26.20;1.00;;;;;;2276271;60;1318;-85
2022/07/12 05:56:09;9087.00;0.03;16.37;0.00;0.00;0.62;;;;;27.80;1.00;;;;;;2275974;60;1493;-84
2022/07/12 05:58:38;28940.00;0.10;50.75;0.00;0.00;0.62;;;;;28.90;1.00;;;;;;2275188;61;1144;-85
2022/07/12 06:01:05;0.00;0.00;0.62;0.00;0.00;0.62;;;;;30.00;1.00;;;;;;2274950;61;1291;-85
2022/07/12 06:03:32;36096.00;0.12;63.13;0.00;0.00;0.62;;;;;30.60;1.00;;;;;;2276253;60;1066;-84
2022/07/12 06:06:00;0.00;0.00;0.62;0.00;0.00;0.62;;;;;30.80;1.00;;;;;;2275215;61;1160;-84
2022/07/12 06:08:27;0.00;0.00;0.62;0.00;0.00;0.62;;;;;31.80;1.00;;;;;;2275245;61;2004;-84
2022/07/12 06:10:54;0.00;0.00;0.62;0.00;0.00;0.62;;;;;31.90;1.00;;;;;;2274924;61;1345;-84
2022/07/12 06:13:21;0.00;0.00;0.62;0.00;0.00;0.62;;;;;32.30;1.00;;;;;;2273813;61;1164;-83
2022/07/12 06:15:49;0.00;0.00;0.62;0.00;0.00;0.62;;;;;32.30;1.00;;;;;;2273961;61;1880;-84
2022/07/12 06:18:16;3469.00;0.01;6.63;0.00;0.00;0.62;;;;;32.90;1.00;;;;;;2274804;61;1124;-83
2022/07/12 06:20:43;16462.00;0.05;29.14;0.00;0.00;0.62;;;;;33.60;1.00;;;;;;2275685;61;1426;-84
2022/07/12 06:23:10;34538.00;0.12;60.44;0.00;0.00;0.62;;;;;33.40;1.00;;;;;;2275676;61;2171;-84
2022/07/12 06:25:37;0.00;0.00;0.62;0.00;0.00;0.62;;;;;33.50;1.00;;;;;;2275056;61;1168;-84
2022/07/12 06:28:06;53327.00;0.18;92.94;0.00;0.00;0.62;;;;;33.90;1.00;;;;;;2274229;61;1104;-83
2022/07/12 06:30:33;7378.00;0.02;13.41;0.00;0.00;0.62;;;;;33.90;1.00;;;;;;2274105;61;2016;-84
2022/07/12 06:33:01;0.00;0.00;0.62;0.00;0.00;0.62;;;;;34.50;1.00;;;;;;2274591;61;1155;-83
2022/07/12 06:35:28;0.00;0.00;0.62;0.00;0.00;0.62;;;;;34.70;1.00;;;;;;2275094;61;1152;-82
2022/07/12 06:37:55;0.00;0.00;0.62;0.00;0.00;0.62;;;;;34.90;1.00;;;;;;2274971;61;2146;-83
2022/07/12 06:40:22;0.00;0.00;0.62;0.00;0.00;0.62;;;;;35.00;1.00;;;;;;2274556;61;1565;-82
2022/07/12 06:42:50;0.00;0.00;0.62;0.00;0.00;0.62;;;;;34.50;1.00;;;;;;2274990;61;1163;-83
2022/07/12 06:45:17;0.00;0.00;0.62;0.00;0.00;0.62;;;;;35.50;1.00;;;;;;2274664;61;1159;-82
2022/07/12 06:47:44;0.00;0.00;0.62;0.00;0.00;0.62;;;;;36.10;1.00;;;;;;2275800;61;1128;-84
2022/07/12 06:50:13;52252.00;0.17;91.08;0.00;0.00;0.62;;;;;35.90;1.00;;;;;;2275405;61;1927;-82
2022/07/12 06:52:40;0.00;0.00;0.62;0.00;0.00;0.62;;;;;35.00;1.00;;;;;;2274886;61;1239;-82
2022/07/12 06:55:08;61971.00;0.21;107.88;0.00;0.00;0.62;;;;;35.00;1.00;;;;;;2275151;61;1872;-83
2022/07/12 06:57:36;0.00;0.00;0.62;0.00;0.00;0.62;;;;;35.40;1.00;;;;;;2274724;61;1170;-83
2022/07/12 07:00:05;0.00;0.00;0.62;0.00;0.00;0.62;;;;;36.00;1.00;;;;;;2274745;61;1354;-83
2022/07/12 07:02:32;0.00;0.00;0.62;0.00;0.00;0.62;;;;;36.70;1.00;;;;;;2276697;60;1896;-85
2022/07/12 07:04:59;0.00;0.00;0.62;0.00;0.00;0.62;;;;;36.50;1.00;;;;;;2276939;60;1026;-85
2022/07/12 07:07:27;0.00;0.00;0.62;0.00;0.00;0.62;;;;;36.60;1.00;;;;;;2276585;60;1143;-84
2022/07/12 07:09:55;0.00;0.00;0.62;0.00;0.00;0.62;;;;;37.00;1.00;;;;;;2275939;61;1945;-84
2022/07/12 07:12:22;30040.00;0.10;52.65;0.00;0.00;0.62;;;;;36.60;1.00;;;;;;2275891;61;1151;-83
2022/07/12 07:14:49;24954.00;0.08;43.85;0.00;0.00;0.62;;;;;36.70;1.00;;;;;;2275429;61;1186;-83
2022/07/12 07:17:19;0.00;0.00;0.62;0.00;0.00;0.62;;;;;36.40;1.00;;;;;;2275922;60;1084;-84
2022/07/12 07:19:46;32735.00;0.11;57.32;0.00;0.00;0.62;;;;;36.40;1.00;;;;;;2275594;61;1161;-84
2022/07/12 07:22:14;69669.00;0.23;121.19;0.00;0.00;0.62;;;;;36.20;1.00;;;;;;2276454;60;1698;-85
2022/07/12 07:24:42;177815.00;0.59;307.73;0.00;0.00;0.62;;;;;35.60;1.00;;;;;;2276649;60;1441;-84
2022/07/12 07:27:09;31368.00;0.10;54.95;0.00;0.00;0.62;;;;;34.80;1.00;;;;;;2275821;61;1687;-84
2022/07/12 07:32:21;172775.00;0.58;299.05;56372.00;0.19;98.20;;;;;36.50;1.00;;;;;;2275465;61;1175;-82
2022/07/12 07:34:47;0.00;0.00;0.62;0.00;0.00;0.62;;;;;36.40;1.00;;;;;;2275668;60;1057;-83
2022/07/12 07:37:16;0.00;0.00;0.62;0.00;0.00;0.62;;;;;36.20;1.00;;;;;;2275917;61;1101;-84
2022/07/12 07:39:44;21732.00;0.07;38.27;0.00;0.00;0.62;;;;;36.30;1.00;;;;;;2275802;61;1135;-83
2022/07/12 07:42:11;58929.00;0.20;102.63;0.00;0.00;0.62;;;;;36.50;1.00;;;;;;2275805;61;1568;-83
2022/07/12 07:44:38;0.00;0.00;0.62;0.00;0.00;0.62;;;;;36.50;1.00;;;;;;2275241;61;1144;-83
2022/07/12 07:47:05;232629.00;0.78;402.07;33573.00;0.11;58.77;;;;;37.00;1.00;;;;;;2275449;60;1175;-85
2022/07/12 07:49:32;0.00;0.00;0.62;0.00;0.00;0.62;;;;;37.30;1.00;;;;;;2276435;60;2008;-83
2022/07/12 07:51:59;0.00;0.00;0.62;0.00;0.00;0.62;;;;;36.50;1.00;;;;;;2276524;60;1381;-83
2022/07/12 07:54:26;0.00;0.00;0.62;0.00;0.00;0.62;;;;;36.30;1.00;;;;;;2276299;61;1070;-83
2022/07/12 07:56:55;7748.00;0.03;14.05;0.00;0.00;0.62;;;;;36.70;1.00;;;;;;2275922;61;1501;-85
2022/07/12 07:59:22;0.00;0.00;0.62;0.00;0.00;0.62;;;;;37.30;1.00;;;;;;2275544;61;1171;-84
2022/07/12 08:01:52;117178.00;0.39;203.21;0.00;0.00;0.62;;;;;36.10;1.00;;;;;;2275796;61;1949;-87
2022/07/12 08:04:21;0.00;0.00;0.62;0.00;0.00;0.62;;;;;35.40;1.00;;;;;;2276228;60;1160;-85
2022/07/12 08:06:49;0.00;0.00;0.62;0.00;0.00;0.62;;;;;35.20;1.00;;;;;;2276497;60;1161;-85
2022/07/12 08:09:17;56613.00;0.19;98.62;0.00;0.00;0.62;;;;;35.40;1.00;;;;;;2276332;60;2008;-84
2022/07/12 08:11:44;48694.00;0.16;84.93;0.00;0.00;0.62;;;;;36.10;1.00;;;;;;2276795;60;1368;-85
2022/07/12 08:14:12;31370.00;0.10;54.95;0.00;0.00;0.62;;;;;34.90;1.00;;;;;;2274330;61;1052;-82
2022/07/12 08:16:40;0.00;0.00;0.62;0.00;0.00;0.62;;;;;35.20;1.00;;;;;;2274414;61;1174;-84
2022/07/12 08:19:07;0.00;0.00;0.62;0.00;0.00;0.62;;;;;35.50;1.00;;;;;;2275737;61;1070;-83
2022/07/12 08:21:34;34483.00;0.11;60.34;0.00;0.00;0.62;;;;;35.80;1.00;;;;;;2276441;60;1300;-84
2022/07/12 08:24:01;0.00;0.00;0.62;0.00;0.00;0.62;;;;;35.30;1.00;;;;;;2275925;61;1155;-83
2022/07/12 08:26:28;0.00;0.00;0.62;0.00;0.00;0.62;;;;;35.40;1.00;;;;;;2275158;61;1166;-83
2022/07/12 08:28:55;0.00;0.00;0.62;0.00;0.00;0.62;;;;;35.40;1.00;;;;;;2275132;61;1927;-83
2022/07/12 08:31:23;0.00;0.00;0.62;0.00;0.00;0.62;;;;;35.60;1.00;;;;;;2274864;61;1454;-83
2022/07/12 08:33:50;0.00;0.00;0.62;0.00;0.00;0.62;;;;;35.70;1.00;;;;;;2275388;60;1113;-82
2022/07/12 08:36:17;399178.00;1.33;688.39;42945.00;0.14;74.98;;;;;35.70;1.00;;;;;;2275503;61;1164;-82
2022/07/12 08:38:44;94166.00;0.31;163.50;0.00;0.00;0.62;;;;;35.30;1.00;;;;;;2275835;61;1441;-83
2022/07/12 08:41:13;0.00;0.00;0.62;0.00;0.00;0.62;;;;;35.70;1.00;;;;;;2276062;60;1475;-83
2022/07/12 08:43:41;0.00;0.00;0.62;0.00;0.00;0.62;;;;;34.80;1.00;;;;;;2276267;60;2318;-84
2022/07/12 08:46:09;110704.00;0.37;192.04;0.00;0.00;0.62;;;;;34.00;1.00;;;;;;2275527;60;1625;-83
2022/07/12 08:48:39;32563.00;0.11;57.02;0.00;0.00;0.62;;;;;33.60;1.00;;;;;;2275664;60;1023;-85
2022/07/12 08:51:08;33121.00;0.11;57.98;0.00;0.00;0.62;;;;;33.90;1.00;;;;;;2275937;61;1963;-84
2022/07/12 08:53:35;0.00;0.00;0.62;0.00;0.00;0.62;;;;;34.10;1.00;;;;;;2274986;61;1124;-83
2022/07/12 08:56:02;18975.00;0.06;33.50;0.00;0.00;0.62;;;;;34.20;1.00;;;;;;2276322;60;1203;-84
2022/07/12 08:58:29;63138.00;0.21;109.90;0.00;0.00;0.62;;;;;34.30;1.00;;;;;;2275275;60;2188;-86
2022/07/12 09:00:56;0.00;0.00;0.62;0.00;0.00;0.62;;;;;33.80;1.00;;;;;;2275791;60;1372;-84
2022/07/12 09:03:26;0.00;0.00;0.62;0.00;0.00;0.62;;;;;34.00;1.00;;;;;;2276017;60;1113;-86
2022/07/12 09:05:56;20301.00;0.07;35.79;0.00;0.00;0.62;;;;;33.40;1.00;;;;;;2275985;60;1072;-84
2022/07/12 09:08:29;0.00;0.00;0.62;0.00;0.00;0.62;;;;;33.70;1.00;;;;;;2276271;60;1073;-85
2022/07/12 09:10:59;29604.00;0.10;51.90;0.00;0.00;0.62;;;;;32.80;1.00;;;;;;2276502;60;2014;-86
2022/07/12 09:13:53;0.00;0.00;0.62;0.00;0.00;0.62;;;;;32.50;1.00;;;;;;2276568;60;1078;-85
2022/07/12 09:16:21;0.00;0.00;0.62;0.00;0.00;0.62;;;;;32.90;1.00;;;;;;2276541;60;1072;-85
2022/07/12 09:19:11;0.00;0.00;0.62;0.00;0.00;0.62;;;;;32.80;1.00;;;;;;2276507;60;1103;-86
2022/07/12 09:21:49;148.00;0.00;0.88;0.00;0.00;0.62;;;;;32.40;1.00;;;;;;2276359;60;1463;-86
2022/07/12 09:24:16;9447.00;0.03;16.99;0.00;0.00;0.62;;;;;31.60;1.00;;;;;;2276361;60;1069;-85
2022/07/12 09:26:45;0.00;0.00;0.62;0.00;0.00;0.62;;;;;31.20;1.00;;;;;;2276234;60;1145;-86
2022/07/12 09:29:14;78445.00;0.26;136.35;0.00;0.00;0.62;;;;;30.70;1.00;;;;;;2276442;60;2031;-88
2022/07/12 09:36:06;158909.00;0.53;275.16;0.00;0.00;0.62;;;;;30.60;1.00;;;;;;2276337;60;1305;-85
2022/07/12 09:37:15;0.00;0.00;0.62;0.00;0.00;0.62;;;;;30.20;1.00;;;;;;2276160;60;1207;-84
2022/07/12 09:39:43;0.00;0.00;0.62;0.00;0.00;0.62;;;;;30.00;1.00;;;;;;2276431;60;1107;-83
2022/07/12 09:42:12;23986.00;0.08;42.17;0.00;0.00;0.62;;;;;29.60;1.00;;;;;;2276409;60;1435;-86
2022/07/12 09:44:39;0.00;0.00;0.62;0.00;0.00;0.62;;;;;29.60;1.00;;;;;;2276463;60;1141;-85
2022/07/12 09:47:12;0.00;0.00;0.62;0.00;0.00;0.62;;;;;29.20;1.00;;;;;;2275833;60;1047;-84
2022/07/12 09:49:40;0.00;0.00;0.62;0.00;0.00;0.62;;;;;29.10;1.00;;;;;;2276195;60;1980;-84
2022/07/12 09:52:12;0.00;0.00;0.62;0.00;0.00;0.62;;;;;29.10;1.00;;;;;;2276048;60;1324;-84
2022/07/12 09:54:42;0.00;0.00;0.62;0.00;0.00;0.62;;;;;29.70;1.00;;;;;;2275734;60;1159;-82
2022/07/12 09:57:20;0.00;0.00;0.62;0.00;0.00;0.62;;;;;30.00;1.00;;;;;;2275482;61;1092;-84
2022/07/12 09:59:50;0.00;0.00;0.62;0.00;0.00;0.62;;;;;30.20;1.00;;;;;;2275855;60;1085;-84
2022/07/12 10:02:18;46406.00;0.15;80.97;0.00;0.00;0.62;;;;;30.60;1.00;;;;;;2276213;60;1127;-85
2022/07/12 10:04:48;0.00;0.00;0.62;0.00;0.00;0.62;;;;;30.90;1.00;;;;;;2275795;60;1568;-85
2022/07/12 10:07:15;0.00;0.00;0.62;0.00;0.00;0.62;;;;;30.30;1.00;;;;;;2276105;60;1185;-82
2022/07/12 10:09:46;0.00;0.00;0.62;0.00;0.00;0.62;;;;;29.10;1.00;;;;;;2276446;60;1995;-85
2022/07/12 10:12:17;75154.00;0.25;130.67;0.00;0.00;0.62;;;;;28.10;1.00;;;;;;2276404;60;1374;-83
2022/07/12 10:14:45;0.00;0.00;0.62;0.00;0.00;0.62;;;;;27.80;1.00;;;;;;2275905;60;1096;-83
2022/07/12 10:17:14;0.00;0.00;0.62;0.00;0.00;0.62;;;;;27.80;1.00;;;;;;2276409;60;1141;-86
2022/07/12 10:19:41;77362.00;0.26;134.48;0.00;0.00;0.62;;;;;27.70;1.00;;;;;;2276388;60;1093;-87
2022/07/12 10:22:20;68493.00;0.23;119.16;0.00;0.00;0.62;;;;;27.70;1.00;;;;;;2276323;60;1419;-86
2022/07/12 10:24:53;69785.00;0.23;121.39;0.00;0.00;0.62;;;;;28.00;1.00;;;;;;2276383;60;1051;-85
2022/07/12 10:27:32;3543.00;0.01;6.76;0.00;0.00;0.62;;;;;27.70;1.00;;;;;;2276240;60;1400;-89
2022/07/12 10:30:21;67701.00;0.23;117.79;0.00;0.00;0.62;;;;;27.80;1.00;;;;;;2276159;60;1997;-87